Relevés horaires Bierset (Belgique)


Relevés horaires à Bierset - Samedi 04 Août 2018
Heure UTC1 Température [°C] Vent [km/h] Hum. [%] Pres.4 [hPa] Visi. [Km] Nébu. [octa] Préc.5 [mm] Cond.
2m. Res. Ros. Dir.2 Vit. Moy. Raf.3
23:00 19.7 19.7 16.5 NNO 5.6 7.4 9.3 82 1022.2(1.1/3h) 22 7/8 -- --
22:00 20.5 20.5 16.8 NNO 7.4 9.3 14.8 79 1021.9(1.6/3h) 40 7/8 -- --
21:00 21.7 21.7 16.7 N 9.3 13.0 20.4 73 1021.6(2.2/3h) 40 7/8 -- --
20:00 23.5 23.5 16.8 NNO 9.3 13.0 16.7 66 1020.8(1.9/3h) 40 7/8 -- --
19:00 26.0 26.0 17.5 N 13.0 13.0 20.4 59 1019.8(1.2/3h) 40 7/8 -- --
18:00 28.2 28.2 15.5 NNO 11.1 11.1 16.7 46 1019(0.3/3h) 40 7/8 trace/12h
--
17:00 30.2 30.2 12.9 NNO 7.4 7.4 14.8 35 1018.5(-0.2/3h) 40 6/8 -- --
16:00 30.9 30.9 12.9 N 7.4 7.4 13.0 33 1018.3(-0.7/3h) 40 6/8 -- --
15:00 31.6 31.6 12.3 NNO 3.7 7.4 14.8 31 1018.4(-0.8/3h) 40 6/8 -- --
14:00 30.8 30.8 12.3 NNO 5.6 7.4 13.0 32 1018.7(-0.8/3h) 40 7/8 -- --
13:00 30.3 30.3 12.1 NNO 7.4 7.4 13.0 33 1019(-0.5/3h) 30 6/8 -- --
12:00 29.9 29.9 13.9 N 5.6 7.4 13.0 38 1019.4(0.1/3h) 30 6/8 0/6h
--
11:00 28.9 28.9 14.2 N 5.6 7.4 13.0 41 1019.7(0.2/3h) 30 5/8 -- --
10:00 27.5 27.5 15.3 NNO 5.6 7.4 11.1 47 1019.7(0.5/3h) 40 3/8 -- --
09:00 25.3 25.3 15.4 NO 3.7 3.7 5.6 54 1019.8(0.8/3h) 40 1/8 -- --
08:00 22.8 22.8 15.2 N 3.7 3.7 5.6 62 1019.9(0.8/3h) 40 1/8 -- --
07:00 21.1 21.1 14.9 NNO 3.7 3.7 5.6 68 1019.6(0.7/3h) 40 6/8 -- --
06:00 20.0 20.0 14.6 NE 1.9 5.6 7.4 71 1019.4(0.4/3h) 40 7/8 0/12h
--
05:00 19.2 19.2 14.5 NO 1.9 3.7 5.6 74 1019.3(0.0/3h) 30 7/8 -- --
04:00 19.0 19.0 14.0 NNO 3.7 3.7 5.6 73 1019.1(-0.4/3h) 30 3/8 -- --
03:00 19.4 19.4 13.6 NNO 1.9 5.6 7.4 69 1019.1(-0.4/3h) 30 3/8 -- --
02:00 19.9 19.9 13.0 NNO 1.9 5.6 7.4 64 1019.3(-0.5/3h) 30 5/8 -- --
01:00 21.1 21.1 13.5 NNO 5.6 5.6 7.4 62 1019.3(-0.4/3h) 30 5/8 -- --
00:00 23.2 23.2 13.1 ONO 1.9 7.4 11.1 53 1019.2(-0.2/3h) 30 5/8 0/6h
0/24h
--

1 Coordinated Universal Time. Actuellement il est 11:00 locale et 09:00 UTC.

2 Le vent souffle depuis la direction indiquée vers la direction oposée.

3 Les rafales max. sont disponible 40 min après l'heure du relevé.

4 Pour les stations d'altitude (plus de 600m) le géopotentiel du niveau le plus proche de la pression obligatoire est indiqué.

5 Les stations disposant d'un diffuseur peuvent indiquer "trace". Cela signifie que des précipitations ont touchés le sol mais que la quantité est inférieure à 0.1 mm.

Récapitulatif de la journée
Température [°C] Vent [km/h] Ensoleillement4 [h] Precipitations totale5 [mm] Pression [Hpa]
Min1 Max.2 Moy.3 Max. Min Max.
18.7 32.0 7.3 20.4 0 h 0 min 0 1018.3 1022.2

1 Température minimale relevée entre 18:00 UTC la veille et 18:00 UTC le jour donné.

2 Température maximale relevée entre 06:00 UTC le jour donné et 06:00 UTC le lendemain.

3 Vent moyen de la journée basé sur les relevés horaires.

4 Ensoleillement en heures relevé entre 06:00 UTC la veille et 06:00 UTC le jour donné.

5 Précipitations totales tombées entre 06:00 UTC la jour donné et 06:00 UTC le lendemain.

Graphiques horaires